createdAt,value
2019-04-20T00:00:16.902Z,7.60
2019-04-20T00:01:22.838Z,7.80
2019-04-20T00:02:19.363Z,7.70
2019-04-20T00:03:17.955Z,7.50
2019-04-20T00:04:23.369Z,7.90
2019-04-20T00:05:16.997Z,7.90
2019-04-20T00:06:17.325Z,7.90
2019-04-20T00:07:18.652Z,8.10
2019-04-20T00:08:21.722Z,8.10
2019-04-20T00:09:22.575Z,8.00
2019-04-20T00:10:20.026Z,8.70
2019-04-20T00:11:25.395Z,7.80
2019-04-20T00:12:25.442Z,8.30
2019-04-20T00:13:29.022Z,7.60
2019-04-20T00:14:22.480Z,8.50
2019-04-20T00:15:17.540Z,9.10
2019-04-20T00:16:16.867Z,8.30
2019-04-20T00:17:16.389Z,8.20
2019-04-20T00:18:17.019Z,8.70
2019-04-20T00:19:22.579Z,8.30
2019-04-20T00:20:23.561Z,9.10
2019-04-20T00:21:17.508Z,8.60
2019-04-20T00:22:17.253Z,9.40
2019-04-20T00:23:22.667Z,9.20
2019-04-20T00:24:21.677Z,8.90
2019-04-20T00:25:20.183Z,9.60
2019-04-20T00:26:24.937Z,9.00
2019-04-20T00:27:37.032Z,9.50
2019-04-20T00:28:31.627Z,9.00
2019-04-20T00:29:35.476Z,9.20
2019-04-20T00:30:43.117Z,9.30
2019-04-20T00:31:31.069Z,9.30
2019-04-20T00:32:29.642Z,9.30
2019-04-20T00:33:36.358Z,8.60
2019-04-20T00:34:22.859Z,9.30
2019-04-20T00:35:16.887Z,9.00
2019-04-20T00:36:16.210Z,8.90
2019-04-20T00:37:17.057Z,9.30
2019-04-20T00:38:16.072Z,9.10
2019-04-20T00:39:17.189Z,9.00
2019-04-20T00:40:17.098Z,9.40
2019-04-20T00:41:18.591Z,9.10
2019-04-20T00:42:17.883Z,9.40
2019-04-20T00:43:21.061Z,9.30
2019-04-20T00:44:22.525Z,9.50
2019-04-20T00:45:23.518Z,9.10
2019-04-20T00:46:26.243Z,8.70
2019-04-20T00:47:30.482Z,9.00
2019-04-20T00:48:25.804Z,9.80
2019-04-20T00:49:30.521Z,9.50
2019-04-20T00:50:28.284Z,9.00
2019-04-20T00:51:33.947Z,9.40
2019-04-20T00:52:47.087Z,9.00
2019-04-20T00:53:25.136Z,9.10
2019-04-20T00:54:16.050Z,9.10
2019-04-20T00:55:16.918Z,9.20
2019-04-20T00:56:16.186Z,9.30
2019-04-20T00:57:24.692Z,8.90
2019-04-20T00:58:23.625Z,9.00
2019-04-20T00:59:30.228Z,9.30
2019-04-20T01:00:31.559Z,9.80
2019-04-20T01:01:35.922Z,8.80
2019-04-20T01:02:29.595Z,8.20
2019-04-20T01:03:27.800Z,8.60
2019-04-20T01:04:39.217Z,9.30
2019-04-20T01:05:27.588Z,9.00
2019-04-20T01:06:31.777Z,8.80
2019-04-20T01:07:27.363Z,8.40
2019-04-20T01:08:15.448Z,9.10
2019-04-20T01:09:16.013Z,8.60
2019-04-20T01:10:15.411Z,8.10
2019-04-20T01:11:17.590Z,8.50
2019-04-20T01:12:21.556Z,8.60
2019-04-20T01:13:19.800Z,8.70
2019-04-20T01:14:17.177Z,9.30
2019-04-20T01:15:25.606Z,9.40
2019-04-20T01:16:25.537Z,9.00
2019-04-20T01:17:15.332Z,9.40
2019-04-20T01:18:15.323Z,9.00
2019-04-20T01:19:15.899Z,8.90
2019-04-20T01:20:15.235Z,9.00
2019-04-20T01:21:19.874Z,9.50
2019-04-20T01:22:18.488Z,9.10
2019-04-20T01:23:19.040Z,9.20
2019-04-20T01:24:22.189Z,9.40
2019-04-20T01:25:23.045Z,8.90
2019-04-20T01:26:18.074Z,9.60
2019-04-20T01:27:27.410Z,9.10
2019-04-20T01:28:31.068Z,9.10
2019-04-20T01:29:24.998Z,8.60
2019-04-20T01:30:25.282Z,9.50
2019-04-20T01:31:25.405Z,9.50
2019-04-20T01:32:23.349Z,9.30
2019-04-20T01:33:27.869Z,9.60
2019-04-20T01:34:32.522Z,9.20
2019-04-20T01:35:32.960Z,9.10
2019-04-20T01:36:37.118Z,8.80
2019-04-20T01:37:31.730Z,9.10
2019-04-20T01:38:30.598Z,9.40
2019-04-20T01:39:25.382Z,9.20
2019-04-20T01:40:14.982Z,9.10
2019-04-20T01:41:16.037Z,9.40
2019-04-20T01:42:15.132Z,9.60
2019-04-20T01:43:14.790Z,9.10
2019-04-20T01:44:18.014Z,8.90
2019-04-20T01:45:24.722Z,9.80
2019-04-20T01:46:18.956Z,9.20
2019-04-20T01:47:15.075Z,9.90
2019-04-20T01:48:22.901Z,9.40
2019-04-20T01:49:19.088Z,10.10
2019-04-20T01:50:21.258Z,9.50
2019-04-20T01:51:21.311Z,9.60
2019-04-20T01:52:20.256Z,9.20
2019-04-20T01:53:23.623Z,9.40
2019-04-20T01:54:27.616Z,9.60
2019-04-20T01:55:33.643Z,9.60
2019-04-20T01:56:27.693Z,9.50
2019-04-20T01:57:21.865Z,10.00
2019-04-20T01:58:37.697Z,9.90
2019-04-20T01:59:29.510Z,9.10
2019-04-20T02:00:21.103Z,9.40
2019-04-20T02:01:22.050Z,9.40
2019-04-20T02:02:19.271Z,10.10
2019-04-20T02:03:15.000Z,9.00
2019-04-20T02:04:20.534Z,9.60
2019-04-20T02:05:21.235Z,10.40
2019-04-20T02:06:18.220Z,10.50
2019-04-20T02:07:18.379Z,10.00
2019-04-20T02:08:19.624Z,9.70
2019-04-20T02:09:20.303Z,10.30
2019-04-20T02:10:16.811Z,10.20
2019-04-20T02:11:23.123Z,10.00
2019-04-20T02:12:21.888Z,9.90
2019-04-20T02:13:15.360Z,10.50
2019-04-20T02:14:23.328Z,10.60
2019-04-20T02:15:24.915Z,10.40
2019-04-20T02:16:22.665Z,10.40
2019-04-20T02:17:22.749Z,10.70
2019-04-20T02:18:29.713Z,10.70
2019-04-20T02:19:30.359Z,10.80
2019-04-20T02:20:33.119Z,10.80
2019-04-20T02:21:28.250Z,10.60
2019-04-20T02:22:34.166Z,10.00
2019-04-20T02:23:24.983Z,10.60
2019-04-20T02:24:15.736Z,10.10
2019-04-20T02:25:14.234Z,10.90
2019-04-20T02:26:14.291Z,10.60
2019-04-20T02:27:14.737Z,10.30
2019-04-20T02:28:28.866Z,10.80
2019-04-20T02:29:36.039Z,9.90
2019-04-20T02:30:53.999Z,10.60
2019-04-20T02:31:55.835Z,10.60
2019-04-20T02:32:45.571Z,10.30
2019-04-20T02:33:47.267Z,10.00
2019-04-20T02:35:52.809Z,10.60
2019-04-20T02:36:58.721Z,10.70
2019-04-20T02:37:56.895Z,11.20
2019-04-20T02:39:05.205Z,10.50
2019-04-20T02:40:00.445Z,10.50
2019-04-20T02:40:50.551Z,11.10
2019-04-20T02:44:04.126Z,10.90
2019-04-20T02:44:50.403Z,10.70
2019-04-20T02:46:52.638Z,10.90
2019-04-20T02:47:47.342Z,11.00
2019-04-20T02:48:50.963Z,11.00
2019-04-20T02:50:44.120Z,10.80
2019-04-20T02:51:46.675Z,11.20
2019-04-20T02:53:06.190Z,10.80
2019-04-20T02:53:55.197Z,11.20
2019-04-20T02:54:45.064Z,10.40
2019-04-20T02:55:48.333Z,11.30
2019-04-20T02:56:47.961Z,10.90
2019-04-20T02:58:50.283Z,11.20
2019-04-20T03:00:35.591Z,11.40
2019-04-20T03:01:30.912Z,10.80
2019-04-20T03:02:27.226Z,11.40
2019-04-20T03:03:22.774Z,11.40
2019-04-20T03:04:28.420Z,11.60
2019-04-20T03:05:28.102Z,11.50
2019-04-20T03:06:22.774Z,11.20
2019-04-20T03:07:28.048Z,11.50
2019-04-20T03:08:26.157Z,11.80
2019-04-20T03:09:36.178Z,11.50
2019-04-20T03:10:43.283Z,11.70
2019-04-20T03:11:42.624Z,10.70
2019-04-20T03:13:32.348Z,11.50
2019-04-20T03:14:28.021Z,11.40
2019-04-20T03:15:33.850Z,10.90
2019-04-20T03:16:32.354Z,10.40
2019-04-20T03:17:35.077Z,11.10
2019-04-20T03:18:32.129Z,11.60
2019-04-20T03:19:28.843Z,11.40
2019-04-20T03:20:36.763Z,11.80
2019-04-20T03:21:39.364Z,11.10
2019-04-20T03:22:39.718Z,11.40
2019-04-20T03:23:45.893Z,12.10
2019-04-20T03:24:37.404Z,11.70
2019-04-20T03:25:37.001Z,11.60
2019-04-20T03:26:34.138Z,12.40
2019-04-20T03:27:29.225Z,10.90
2019-04-20T03:28:31.222Z,11.60
2019-04-20T03:29:36.828Z,11.30
2019-04-20T03:31:15.740Z,11.20
2019-04-20T03:32:01.202Z,11.40
2019-04-20T03:32:57.978Z,12.50
2019-04-20T03:33:53.899Z,12.10
2019-04-20T03:34:56.222Z,12.30
2019-04-20T03:35:35.566Z,12.20
2019-04-20T03:36:42.876Z,12.20
2019-04-20T03:37:38.049Z,12.10
2019-04-20T03:38:33.014Z,11.80
2019-04-20T03:39:29.879Z,11.70
2019-04-20T03:40:24.383Z,12.20
2019-04-20T03:41:23.630Z,11.40
2019-04-20T03:42:13.858Z,12.00
2019-04-20T03:43:13.834Z,11.80
2019-04-20T03:44:17.852Z,12.00
2019-04-20T03:45:17.187Z,13.10
2019-04-20T03:46:15.965Z,12.70
2019-04-20T03:47:22.967Z,13.30
2019-04-20T03:48:33.591Z,12.30
2019-04-20T03:49:37.841Z,12.60
2019-04-20T03:50:37.153Z,12.60
2019-04-20T03:51:37.106Z,13.00
2019-04-20T03:52:31.328Z,12.70
2019-04-20T03:53:34.511Z,12.90
2019-04-20T03:54:24.381Z,12.90
2019-04-20T03:55:26.171Z,12.90
2019-04-20T03:56:37.811Z,12.40
2019-04-20T03:57:34.418Z,13.30
2019-04-20T03:58:29.138Z,12.60
2019-04-20T03:59:33.812Z,13.00
2019-04-20T04:00:30.468Z,12.70
2019-04-20T04:01:59.936Z,12.10
2019-04-20T04:02:47.964Z,12.50
2019-04-20T04:03:44.123Z,12.50
2019-04-20T04:04:34.129Z,12.90
2019-04-20T04:05:30.230Z,12.80
2019-04-20T04:06:23.478Z,12.00
2019-04-20T04:07:19.473Z,13.00
2019-04-20T04:08:21.832Z,12.70
2019-04-20T04:09:23.727Z,13.40
2019-04-20T04:10:27.398Z,13.00
2019-04-20T04:11:28.437Z,11.40
2019-04-20T04:12:21.805Z,12.30
2019-04-20T04:13:11.994Z,12.90
2019-04-20T04:14:11.830Z,13.00
2019-04-20T04:15:12.667Z,12.60
2019-04-20T04:16:15.081Z,14.20
2019-04-20T04:17:13.326Z,13.40
2019-04-20T04:18:17.932Z,13.90
2019-04-20T04:19:20.757Z,13.50
2019-04-20T04:20:15.962Z,12.90
2019-04-20T04:21:21.238Z,13.00
2019-04-20T04:22:23.529Z,13.00
2019-04-20T04:23:29.567Z,13.40
2019-04-20T04:24:23.823Z,13.50
2019-04-20T04:25:22.795Z,12.80
2019-04-20T04:26:32.116Z,13.10
2019-04-20T04:27:34.459Z,13.10
2019-04-20T04:28:28.684Z,13.30
2019-04-20T04:29:40.031Z,13.00
2019-04-20T04:30:25.939Z,13.10
2019-04-20T04:31:33.385Z,13.40
2019-04-20T04:32:46.798Z,13.60
2019-04-20T04:34:32.319Z,13.50
2019-04-20T04:35:24.305Z,13.30
2019-04-20T04:36:27.540Z,13.30
2019-04-20T04:37:32.463Z,13.10
2019-04-20T04:38:36.021Z,13.00
2019-04-20T04:39:31.195Z,13.00
2019-04-20T04:41:31.049Z,13.30
2019-04-20T04:42:37.436Z,13.00
2019-04-20T04:43:35.978Z,12.90
2019-04-20T04:44:23.939Z,12.80
2019-04-20T04:45:13.927Z,13.60
2019-04-20T04:46:12.398Z,13.90
2019-04-20T04:47:13.458Z,13.60
2019-04-20T04:48:14.772Z,12.70
2019-04-20T04:49:20.801Z,13.30
2019-04-20T04:50:16.444Z,13.80
2019-04-20T04:51:18.524Z,13.20
2019-04-20T04:52:15.932Z,12.70
2019-04-20T04:53:24.954Z,13.80
2019-04-20T04:54:22.035Z,13.10
2019-04-20T04:55:23.733Z,12.70
2019-04-20T04:56:15.150Z,12.80
2019-04-20T04:57:11.565Z,13.80
2019-04-20T04:58:10.937Z,13.30
2019-04-20T04:59:10.921Z,13.40
2019-04-20T05:00:19.996Z,13.50
2019-04-20T05:01:16.654Z,13.20
2019-04-20T05:02:11.778Z,13.90
2019-04-20T05:03:29.346Z,12.80
2019-04-20T05:04:31.664Z,12.80
2019-04-20T05:05:34.156Z,13.00
2019-04-20T05:06:26.461Z,13.00
2019-04-20T05:07:24.405Z,12.60
2019-04-20T05:08:21.171Z,13.60
2019-04-20T05:09:14.939Z,13.10
2019-04-20T05:10:11.908Z,13.00
2019-04-20T05:11:11.070Z,13.30
2019-04-20T05:12:17.186Z,12.60
2019-04-20T05:13:11.341Z,13.10
2019-04-20T05:14:18.599Z,12.90
2019-04-20T05:15:21.187Z,12.50
2019-04-20T05:16:33.341Z,13.30
2019-04-20T05:17:29.128Z,14.00
2019-04-20T05:18:34.789Z,14.20
2019-04-20T05:19:29.756Z,14.10
2019-04-20T05:20:31.297Z,17.40
2019-04-20T05:21:30.197Z,15.00
2019-04-20T05:22:34.755Z,13.30
2019-04-20T05:23:24.918Z,13.30
2019-04-20T05:24:25.501Z,13.40
2019-04-20T05:25:25.123Z,13.40
2019-04-20T05:26:29.982Z,13.70
2019-04-20T05:27:30.191Z,13.60
2019-04-20T05:28:24.394Z,12.30
2019-04-20T05:29:16.226Z,13.10
2019-04-20T05:30:10.285Z,13.60
2019-04-20T05:31:12.217Z,13.90
2019-04-20T05:32:14.863Z,13.20
2019-04-20T05:33:21.408Z,12.60
2019-04-20T05:34:30.559Z,13.10
2019-04-20T05:35:33.658Z,13.70
2019-04-20T05:36:29.662Z,13.90
2019-04-20T05:37:33.376Z,13.60
2019-04-20T05:38:39.779Z,13.70
2019-04-20T05:39:35.123Z,13.40
2019-04-20T05:40:32.568Z,13.60
2019-04-20T05:41:26.513Z,14.20
2019-04-20T05:42:31.409Z,13.60
2019-04-20T05:43:27.258Z,13.80
2019-04-20T05:44:27.670Z,12.50
2019-04-20T05:45:25.205Z,13.20
2019-04-20T05:46:31.070Z,12.90
2019-04-20T05:47:26.972Z,12.60
2019-04-20T05:48:26.146Z,13.80
2019-04-20T05:49:33.129Z,12.40
2019-04-20T05:50:33.218Z,11.90
2019-04-20T05:51:36.543Z,13.10
2019-04-20T05:52:50.933Z,12.40
2019-04-20T05:53:32.636Z,12.30
2019-04-20T05:54:36.343Z,12.40
2019-04-20T05:55:35.769Z,13.00
2019-04-20T05:56:35.904Z,13.00
2019-04-20T05:57:30.114Z,12.90
2019-04-20T05:58:33.609Z,12.90
2019-04-20T05:59:29.999Z,12.30
2019-04-20T06:00:39.015Z,11.70
2019-04-20T06:01:34.611Z,12.50
2019-04-20T06:02:32.102Z,13.10
2019-04-20T06:03:29.016Z,12.80
2019-04-20T06:04:46.212Z,12.20
2019-04-20T06:05:39.602Z,12.30
2019-04-20T06:06:33.264Z,13.20
2019-04-20T06:07:29.620Z,12.80
2019-04-20T06:08:38.449Z,12.60
2019-04-20T06:09:34.209Z,12.40
2019-04-20T06:10:32.533Z,12.10
2019-04-20T06:11:38.495Z,12.80
2019-04-20T06:12:33.093Z,12.30
2019-04-20T06:13:22.809Z,12.00
2019-04-20T06:14:20.572Z,12.10
2019-04-20T06:15:24.738Z,11.90
2019-04-20T06:16:29.887Z,12.40
2019-04-20T06:17:33.338Z,12.60
2019-04-20T06:18:24.507Z,12.40
2019-04-20T06:19:31.290Z,12.50
2019-04-20T06:20:31.033Z,12.50
2019-04-20T06:21:39.540Z,12.10
2019-04-20T06:22:34.995Z,11.90
2019-04-20T06:23:41.470Z,12.10
2019-04-20T06:24:40.885Z,12.00
2019-04-20T06:25:52.975Z,11.90
2019-04-20T06:27:34.190Z,12.70
2019-04-20T06:28:28.324Z,12.10
2019-04-20T06:29:33.298Z,12.50
2019-04-20T06:30:26.302Z,11.80
2019-04-20T06:31:30.095Z,12.10
2019-04-20T06:32:33.702Z,12.10
2019-04-20T06:33:38.579Z,13.20
2019-04-20T06:34:34.371Z,12.40
2019-04-20T06:35:42.822Z,12.20
2019-04-20T06:36:33.621Z,12.10
2019-04-20T06:37:29.721Z,12.60
2019-04-20T06:38:52.467Z,12.40
2019-04-20T06:39:30.980Z,11.80
2019-04-20T06:40:45.802Z,11.60
2019-04-20T06:41:45.309Z,12.30
2019-04-20T06:42:29.008Z,12.00
2019-04-20T06:43:31.480Z,12.40
2019-04-20T06:44:32.291Z,11.80
2019-04-20T06:45:33.782Z,11.30
2019-04-20T06:46:29.218Z,11.90
2019-04-20T06:47:29.327Z,12.00
2019-04-20T06:48:37.041Z,12.20
2019-04-20T06:49:33.184Z,11.40
2019-04-20T06:50:28.870Z,10.90
2019-04-20T06:51:27.672Z,11.50
2019-04-20T06:52:32.808Z,11.10
2019-04-20T06:53:40.853Z,11.10
2019-04-20T06:54:20.049Z,11.10
2019-04-20T06:55:29.279Z,11.30
2019-04-20T06:56:29.122Z,11.40
2019-04-20T06:57:31.030Z,11.80
2019-04-20T06:58:40.665Z,11.80
2019-04-20T06:59:36.350Z,11.20
2019-04-20T07:00:23.193Z,11.70
2019-04-20T07:01:38.674Z,11.40
2019-04-20T07:02:35.742Z,10.80
2019-04-20T07:03:42.272Z,11.70
2019-04-20T07:05:31.123Z,11.40
2019-04-20T07:06:43.570Z,10.80
2019-04-20T07:09:39.914Z,10.70
2019-04-20T07:10:31.311Z,11.40
2019-04-20T07:11:28.162Z,10.60
2019-04-20T07:12:31.171Z,10.30
2019-04-20T07:13:24.060Z,11.10
2019-04-20T07:14:23.382Z,10.90
2019-04-20T07:15:22.657Z,11.10
2019-04-20T07:16:28.006Z,10.90
2019-04-20T07:17:39.455Z,10.20
2019-04-20T07:18:35.290Z,10.30
2019-04-20T07:19:30.119Z,10.50
2019-04-20T07:20:35.132Z,11.20
2019-04-20T07:21:43.680Z,10.50
2019-04-20T07:23:48.354Z,10.10
2019-04-20T07:24:30.838Z,9.80
2019-04-20T07:25:34.225Z,9.90
2019-04-20T07:26:37.476Z,11.30
2019-04-20T07:27:32.055Z,11.50
2019-04-20T07:28:36.682Z,10.10
2019-04-20T07:29:36.827Z,9.80
2019-04-20T07:30:30.875Z,10.30
2019-04-20T07:31:32.901Z,9.90
2019-04-20T07:32:27.387Z,10.40
2019-04-20T07:33:32.183Z,10.70
2019-04-20T07:34:29.018Z,10.40
2019-04-20T07:35:30.378Z,10.50
2019-04-20T07:36:34.888Z,9.90
2019-04-20T07:38:34.478Z,10.30
2019-04-20T07:39:32.755Z,10.00
2019-04-20T07:40:26.386Z,10.20
2019-04-20T07:41:43.265Z,10.40
2019-04-20T07:42:34.829Z,10.40
2019-04-20T07:43:31.905Z,10.10
2019-04-20T07:44:36.279Z,9.80
2019-04-20T07:45:32.147Z,10.40
2019-04-20T07:46:42.486Z,9.40
2019-04-20T07:47:34.458Z,10.40
2019-04-20T07:48:25.761Z,10.00
2019-04-20T07:49:28.994Z,10.30
2019-04-20T07:50:22.418Z,9.90
2019-04-20T07:51:16.130Z,10.10
2019-04-20T07:52:08.230Z,9.30
2019-04-20T07:53:25.715Z,10.10
2019-04-20T07:54:35.782Z,9.30
2019-04-20T07:56:30.435Z,10.20
2019-04-20T07:57:24.725Z,10.40
2019-04-20T07:58:18.398Z,10.10
2019-04-20T07:59:18.945Z,9.90
2019-04-20T08:00:35.490Z,10.90
2019-04-20T08:01:38.847Z,10.40
2019-04-20T08:02:37.747Z,10.40
2019-04-20T08:03:33.594Z,10.50
2019-04-20T08:05:21.999Z,10.70
2019-04-20T08:06:16.586Z,10.30
2019-04-20T08:07:11.160Z,10.50
2019-04-20T08:08:28.169Z,10.80
2019-04-20T08:09:19.504Z,10.80
2019-04-20T08:10:13.564Z,10.50
2019-04-20T08:11:23.437Z,11.70
2019-04-20T08:12:38.468Z,11.50
2019-04-20T08:13:40.368Z,11.40
2019-04-20T08:14:30.242Z,10.80
2019-04-20T08:15:46.062Z,11.00
2019-04-20T08:16:40.629Z,11.60
2019-04-20T08:17:44.279Z,10.70
2019-04-20T08:18:35.206Z,11.10
2019-04-20T08:19:28.679Z,11.20
2019-04-20T08:20:25.823Z,11.20
2019-04-20T08:21:31.543Z,11.20
2019-04-20T08:23:31.710Z,12.30
2019-04-20T08:24:23.567Z,11.40
2019-04-20T08:25:20.282Z,11.40
2019-04-20T08:26:16.276Z,11.50
2019-04-20T08:27:11.441Z,11.40
2019-04-20T08:28:17.709Z,11.70
2019-04-20T08:29:20.561Z,11.30
2019-04-20T08:30:25.012Z,11.60
2019-04-20T08:31:21.914Z,11.70
2019-04-20T08:32:29.440Z,11.60
2019-04-20T08:33:29.477Z,11.90
2019-04-20T08:34:31.205Z,11.80
2019-04-20T08:35:32.796Z,11.80
2019-04-20T08:36:30.134Z,11.90
2019-04-20T08:37:29.283Z,11.70
2019-04-20T08:38:58.325Z,11.60
2019-04-20T08:39:43.400Z,11.70
2019-04-20T08:40:31.423Z,11.90
2019-04-20T08:41:24.833Z,11.70
2019-04-20T08:42:31.591Z,11.60
2019-04-20T08:44:46.947Z,11.50
2019-04-20T08:45:34.811Z,11.30
2019-04-20T08:46:26.828Z,11.50
2019-04-20T08:47:37.873Z,11.70
2019-04-20T08:48:31.366Z,11.00
2019-04-20T08:49:29.554Z,11.90
2019-04-20T08:50:28.788Z,11.90
2019-04-20T08:51:31.791Z,11.20
2019-04-20T08:52:47.119Z,11.30
2019-04-20T08:53:30.802Z,11.50
2019-04-20T08:54:26.611Z,11.30
2019-04-20T08:55:23.487Z,12.00
2019-04-20T08:56:18.792Z,12.60
2019-04-20T08:57:07.468Z,11.40
2019-04-20T08:58:07.391Z,11.70
2019-04-20T08:59:07.385Z,11.70
2019-04-20T09:00:09.053Z,11.70
2019-04-20T09:01:10.299Z,11.30
2019-04-20T09:02:12.030Z,12.10
2019-04-20T09:03:17.573Z,12.10
2019-04-20T09:04:13.260Z,12.10
2019-04-20T09:05:18.628Z,11.50
2019-04-20T09:06:23.800Z,12.20
2019-04-20T09:07:16.152Z,13.40
2019-04-20T09:08:16.226Z,10.80
2019-04-20T09:09:37.560Z,11.20
2019-04-20T09:10:32.439Z,11.50
2019-04-20T09:11:26.241Z,11.50
2019-04-20T09:12:27.785Z,10.30
2019-04-20T09:13:18.632Z,10.60
2019-04-20T09:14:08.952Z,11.10
2019-04-20T09:15:08.257Z,10.90
2019-04-20T09:16:07.160Z,10.80
2019-04-20T09:17:10.624Z,10.50
2019-04-20T09:18:20.624Z,10.70
2019-04-20T09:19:12.332Z,10.20
2019-04-20T09:20:14.722Z,10.90
2019-04-20T09:21:21.497Z,10.60
2019-04-20T09:22:16.165Z,10.20
2019-04-20T09:23:21.298Z,10.30
2019-04-20T09:24:26.938Z,11.00
2019-04-20T09:25:42.736Z,10.40
2019-04-20T09:26:20.223Z,9.60
2019-04-20T09:27:18.383Z,10.50
2019-04-20T09:28:18.787Z,10.30
2019-04-20T09:29:21.927Z,10.20
2019-04-20T09:30:19.918Z,10.60
2019-04-20T09:31:21.331Z,9.90
2019-04-20T09:32:24.689Z,10.10
2019-04-20T09:33:30.418Z,9.90
2019-04-20T09:34:42.779Z,9.80
2019-04-20T09:35:24.956Z,9.80
2019-04-20T09:36:23.913Z,9.70
2019-04-20T09:37:26.907Z,10.50
2019-04-20T09:38:22.077Z,9.20
2019-04-20T09:39:16.384Z,9.80
2019-04-20T09:40:28.972Z,9.90
2019-04-20T09:41:34.917Z,10.90
2019-04-20T09:42:06.929Z,9.20
2019-04-20T09:43:06.911Z,9.60
2019-04-20T09:44:06.909Z,9.60
2019-04-20T09:45:08.288Z,10.00
2019-04-20T09:46:08.562Z,9.70
2019-04-20T09:47:10.034Z,9.80
2019-04-20T09:48:14.633Z,8.40
2019-04-20T09:49:18.594Z,9.60
2019-04-20T09:50:22.522Z,10.30
2019-04-20T09:51:24.849Z,9.40
2019-04-20T09:52:25.816Z,9.80
2019-04-20T09:53:22.018Z,9.40
2019-04-20T09:54:26.743Z,9.00
2019-04-20T09:55:23.220Z,9.20
2019-04-20T09:56:26.958Z,9.40
2019-04-20T09:57:28.094Z,9.40
2019-04-20T09:58:18.981Z,9.00
2019-04-20T09:59:24.933Z,8.80
2019-04-20T10:00:26.965Z,9.10
2019-04-20T10:01:21.642Z,9.30
2019-04-20T10:02:15.688Z,9.10
2019-04-20T10:03:06.805Z,9.60
2019-04-20T10:04:07.605Z,9.80
2019-04-20T10:05:07.386Z,9.50
2019-04-20T10:06:07.555Z,8.10
2019-04-20T10:07:12.935Z,7.90
2019-04-20T10:08:09.936Z,8.00
2019-04-20T10:09:07.316Z,8.70
2019-04-20T10:10:17.879Z,9.30
2019-04-20T10:11:07.653Z,9.40
2019-04-20T10:12:07.932Z,9.30
2019-04-20T10:13:07.325Z,9.40
2019-04-20T10:14:08.124Z,10.20
2019-04-20T10:15:13.823Z,9.70
2019-04-20T10:16:08.006Z,9.10
2019-04-20T10:17:07.768Z,8.90
2019-04-20T10:18:07.884Z,8.20
2019-04-20T10:19:09.969Z,9.60
2019-04-20T10:20:10.882Z,8.70
2019-04-20T10:21:07.567Z,9.10
2019-04-20T10:22:06.775Z,9.00
2019-04-20T10:23:06.837Z,9.20
2019-04-20T10:24:06.754Z,7.50
2019-04-20T10:25:06.750Z,9.80
2019-04-20T10:26:06.828Z,9.60
2019-04-20T10:27:06.754Z,9.00
2019-04-20T10:28:07.662Z,9.60
2019-04-20T10:29:07.921Z,9.30
2019-04-20T10:30:06.753Z,9.00
2019-04-20T10:31:06.924Z,8.90
2019-04-20T10:32:10.410Z,9.70
2019-04-20T10:33:07.744Z,8.50
2019-04-20T10:34:07.426Z,8.90
2019-04-20T10:35:06.734Z,8.90
2019-04-20T10:36:07.756Z,8.60
2019-04-20T10:37:06.736Z,8.50
2019-04-20T10:38:07.510Z,8.60
2019-04-20T10:39:06.736Z,8.40
2019-04-20T10:40:06.885Z,7.90
2019-04-20T10:41:13.920Z,8.80
2019-04-20T10:42:07.990Z,7.70
2019-04-20T10:43:07.959Z,8.10
2019-04-20T10:44:07.137Z,8.30
2019-04-20T10:45:06.732Z,8.10
2019-04-20T10:46:06.990Z,8.70
2019-04-20T10:47:07.238Z,8.50
2019-04-20T10:48:06.720Z,8.50
2019-04-20T10:49:08.278Z,8.20
2019-04-20T10:50:07.105Z,8.40
2019-04-20T10:51:08.236Z,8.30
2019-04-20T10:52:07.585Z,8.40
2019-04-20T10:53:07.924Z,8.60
2019-04-20T10:54:06.794Z,9.20
2019-04-20T10:55:06.721Z,8.60
2019-04-20T10:56:07.459Z,9.30
2019-04-20T10:57:07.857Z,9.10
2019-04-20T10:58:07.329Z,8.60
2019-04-20T10:59:07.721Z,8.60
2019-04-20T11:00:07.927Z,9.00
2019-04-20T11:01:07.383Z,9.00
2019-04-20T11:02:07.941Z,8.70
2019-04-20T11:03:08.040Z,8.50
2019-04-20T11:04:06.713Z,8.30
2019-04-20T11:05:06.720Z,7.90
2019-04-20T11:06:06.888Z,8.50
2019-04-20T11:07:06.728Z,8.30
2019-04-20T11:08:06.717Z,8.40
2019-04-20T11:09:06.817Z,8.80
2019-04-20T11:10:14.721Z,8.80
2019-04-20T11:11:13.037Z,8.60
2019-04-20T11:12:06.711Z,8.80
2019-04-20T11:13:07.401Z,8.10
2019-04-20T11:14:14.510Z,9.00
2019-04-20T11:15:06.726Z,8.30
2019-04-20T11:16:06.735Z,8.60
2019-04-20T11:17:06.721Z,9.00
2019-04-20T11:18:07.110Z,9.10
2019-04-20T11:19:07.439Z,9.20
2019-04-20T11:20:07.496Z,9.10
2019-04-20T11:21:07.152Z,8.90
2019-04-20T11:22:06.708Z,8.70
2019-04-20T11:23:06.718Z,9.50
2019-04-20T11:24:08.035Z,9.70
2019-04-20T11:25:08.192Z,10.00
2019-04-20T11:26:06.704Z,9.20
2019-04-20T11:27:07.906Z,10.00
2019-04-20T11:28:08.113Z,10.10
2019-04-20T11:29:06.698Z,9.20
2019-04-20T11:30:08.011Z,10.10
2019-04-20T11:31:07.974Z,9.90
2019-04-20T11:32:07.285Z,9.30
2019-04-20T11:33:06.690Z,9.50
2019-04-20T11:34:07.961Z,9.70
2019-04-20T11:35:13.681Z,9.30
2019-04-20T11:36:07.424Z,9.80
2019-04-20T11:37:06.930Z,10.50
2019-04-20T11:38:07.103Z,10.00
2019-04-20T11:39:07.154Z,9.90
2019-04-20T11:40:06.686Z,9.50
2019-04-20T11:41:13.476Z,10.00
2019-04-20T11:42:07.770Z,9.50
2019-04-20T11:43:07.676Z,10.10
2019-04-20T11:44:07.621Z,10.00
2019-04-20T11:45:06.835Z,9.20
2019-04-20T11:46:06.929Z,9.30
2019-04-20T11:47:06.671Z,9.40
2019-04-20T11:48:07.488Z,9.10
2019-04-20T11:49:07.910Z,10.40
2019-04-20T11:50:07.305Z,10.20
2019-04-20T11:51:07.533Z,10.20
2019-04-20T11:52:07.754Z,9.90
2019-04-20T11:53:06.649Z,9.80
2019-04-20T11:54:06.637Z,10.00
2019-04-20T11:55:06.625Z,10.30
2019-04-20T11:56:13.560Z,9.90
2019-04-20T11:57:07.063Z,9.50
2019-04-20T11:58:07.984Z,10.40
2019-04-20T11:59:07.284Z,9.80
2019-04-20T12:00:06.612Z,9.60
2019-04-20T12:01:13.094Z,8.90
2019-04-20T12:02:09.131Z,10.10
2019-04-20T12:03:16.105Z,10.10
2019-04-20T12:04:21.525Z,9.70
2019-04-20T12:05:22.398Z,10.00
2019-04-20T12:06:08.583Z,10.10
2019-04-20T12:07:06.863Z,10.20
2019-04-20T12:08:07.001Z,10.40
2019-04-20T12:09:07.333Z,11.10
2019-04-20T12:10:12.073Z,9.50
2019-04-20T12:11:23.042Z,10.40
2019-04-20T12:12:15.748Z,9.90
2019-04-20T12:13:07.782Z,10.10
2019-04-20T12:14:06.948Z,10.20
2019-04-20T12:15:06.596Z,9.90
2019-04-20T12:16:07.734Z,9.60
2019-04-20T12:17:07.829Z,9.20
2019-04-20T12:18:07.528Z,9.30
2019-04-20T12:19:06.504Z,9.50
2019-04-20T12:20:06.447Z,9.90
2019-04-20T12:21:06.431Z,9.60
2019-04-20T12:22:07.556Z,9.40
2019-04-20T12:23:06.532Z,10.40
2019-04-20T12:24:06.798Z,10.50
2019-04-20T12:25:06.395Z,8.60
2019-04-20T12:26:06.767Z,9.60
2019-04-20T12:27:06.990Z,8.80
2019-04-20T12:28:07.464Z,10.00
2019-04-20T12:29:07.818Z,8.30
2019-04-20T12:30:06.337Z,9.60
2019-04-20T12:31:11.845Z,9.60
2019-04-20T12:32:08.605Z,8.90
2019-04-20T12:33:07.429Z,8.80
2019-04-20T12:34:06.426Z,8.20
2019-04-20T12:35:06.506Z,8.90
2019-04-20T12:36:06.279Z,9.40
2019-04-20T12:37:07.159Z,8.50
2019-04-20T12:38:07.326Z,9.20
2019-04-20T12:39:06.910Z,8.90
2019-04-20T12:40:07.158Z,9.00
2019-04-20T12:41:08.366Z,9.30
2019-04-20T12:42:09.096Z,9.80
2019-04-20T12:43:06.878Z,9.80
2019-04-20T12:44:06.183Z,9.60
2019-04-20T12:45:06.169Z,9.80
2019-04-20T12:46:07.748Z,9.60
2019-04-20T12:47:06.176Z,9.30
2019-04-20T12:48:06.135Z,9.70
2019-04-20T12:49:07.504Z,9.10
2019-04-20T12:50:07.577Z,10.20
2019-04-20T12:51:06.110Z,9.70
2019-04-20T12:52:06.654Z,10.40
2019-04-20T12:53:06.519Z,9.40
2019-04-20T12:54:06.690Z,9.90
2019-04-20T12:55:06.448Z,9.80
2019-04-20T12:56:06.523Z,10.30
2019-04-20T12:57:06.740Z,9.60
2019-04-20T12:58:06.185Z,9.70
2019-04-20T12:59:07.366Z,11.60
2019-04-20T13:00:05.992Z,10.20
2019-04-20T13:01:06.628Z,10.40
2019-04-20T13:02:07.109Z,10.70
2019-04-20T13:03:05.968Z,10.00
2019-04-20T13:04:07.532Z,9.90
2019-04-20T13:05:07.209Z,9.90
2019-04-20T13:06:05.993Z,10.30
2019-04-20T13:07:06.002Z,10.10
2019-04-20T13:08:07.464Z,9.80
2019-04-20T13:09:05.889Z,8.80
2019-04-20T13:10:05.970Z,10.00
2019-04-20T13:11:06.603Z,9.40
2019-04-20T13:12:10.199Z,9.30
2019-04-20T13:13:05.838Z,9.90
2019-04-20T13:14:06.343Z,9.60
2019-04-20T13:15:06.550Z,9.90
2019-04-20T13:16:05.808Z,9.70
2019-04-20T13:17:06.227Z,8.90
2019-04-20T13:18:05.781Z,9.10
2019-04-20T13:19:05.778Z,9.40
2019-04-20T13:20:05.927Z,9.30
2019-04-20T13:21:07.060Z,9.50
2019-04-20T13:22:07.233Z,8.90
2019-04-20T13:23:07.376Z,9.60